sensor_id;sensor_type;location;lat;lon;timestamp;temperature;humidity
6244;DHT22;3155;49.940;8.450;2023-02-05T00:00:00;1.20;99.90
6244;DHT22;3155;49.940;8.450;2023-02-05T00:02:30;1.00;99.90
6244;DHT22;3155;49.940;8.450;2023-02-05T00:05:21;0.90;99.90
6244;DHT22;3155;49.940;8.450;2023-02-05T00:08:09;0.80;99.90
6244;DHT22;3155;49.940;8.450;2023-02-05T00:10:36;0.80;99.90
6244;DHT22;3155;49.940;8.450;2023-02-05T00:13:08;0.80;99.90
6244;DHT22;3155;49.940;8.450;2023-02-05T00:15:39;0.70;99.90
6244;DHT22;3155;49.940;8.450;2023-02-05T00:18:07;0.70;99.90
6244;DHT22;3155;49.940;8.450;2023-02-05T00:20:37;0.60;99.90
6244;DHT22;3155;49.940;8.450;2023-02-05T00:23:04;0.50;99.90
6244;DHT22;3155;49.940;8.450;2023-02-05T00:25:30;0.40;99.90
6244;DHT22;3155;49.940;8.450;2023-02-05T00:27:58;0.30;99.90
6244;DHT22;3155;49.940;8.450;2023-02-05T00:30:49;0.20;99.90
6244;DHT22;3155;49.940;8.450;2023-02-05T00:33:40;0.10;99.90
6244;DHT22;3155;49.940;8.450;2023-02-05T00:36:12;0.10;99.90
6244;DHT22;3155;49.940;8.450;2023-02-05T00:38:40;0.10;99.90
6244;DHT22;3155;49.940;8.450;2023-02-05T00:41:07;0.10;99.90
6244;DHT22;3155;49.940;8.450;2023-02-05T00:43:34;0.00;99.90
6244;DHT22;3155;49.940;8.450;2023-02-05T00:46:01;0.00;99.90
6244;DHT22;3155;49.940;8.450;2023-02-05T00:48:28;0.10;99.90
6244;DHT22;3155;49.940;8.450;2023-02-05T00:50:57;0.20;71.10
6244;DHT22;3155;49.940;8.450;2023-02-05T00:53:48;0.40;1.00
6244;DHT22;3155;49.940;8.450;2023-02-05T00:56:17;0.70;99.90
6244;DHT22;3155;49.940;8.450;2023-02-05T00:58:44;0.80;1.00
6244;DHT22;3155;49.940;8.450;2023-02-05T01:01:15;1.00;1.00
6244;DHT22;3155;49.940;8.450;2023-02-05T01:03:42;1.10;25.20
6244;DHT22;3155;49.940;8.450;2023-02-05T01:06:09;1.20;76.80
6244;DHT22;3155;49.940;8.450;2023-02-05T01:08:36;1.30;99.90
6244;DHT22;3155;49.940;8.450;2023-02-05T01:11:07;1.40;99.90
6244;DHT22;3155;49.940;8.450;2023-02-05T01:13:34;1.50;99.90
6244;DHT22;3155;49.940;8.450;2023-02-05T01:16:01;1.60;99.90
6244;DHT22;3155;49.940;8.450;2023-02-05T01:18:29;1.70;1.00
6244;DHT22;3155;49.940;8.450;2023-02-05T01:20:56;1.70;1.00
6244;DHT22;3155;49.940;8.450;2023-02-05T01:23:24;1.70;99.90
6244;DHT22;3155;49.940;8.450;2023-02-05T01:25:51;1.80;99.90
6244;DHT22;3155;49.940;8.450;2023-02-05T01:28:18;1.80;1.00
6244;DHT22;3155;49.940;8.450;2023-02-05T01:30:49;1.80;1.00
6244;DHT22;3155;49.940;8.450;2023-02-05T01:33:17;1.80;99.90
6244;DHT22;3155;49.940;8.450;2023-02-05T01:35:44;1.80;99.90
6244;DHT22;3155;49.940;8.450;2023-02-05T01:38:14;1.80;99.90
6244;DHT22;3155;49.940;8.450;2023-02-05T01:40:41;1.80;99.90
6244;DHT22;3155;49.940;8.450;2023-02-05T01:43:13;1.80;99.90
6244;DHT22;3155;49.940;8.450;2023-02-05T01:48:08;1.60;99.90
6244;DHT22;3155;49.940;8.450;2023-02-05T01:50:49;1.50;99.90
6244;DHT22;3155;49.940;8.450;2023-02-05T01:53:36;1.50;99.90
6244;DHT22;3155;49.940;8.450;2023-02-05T01:56:07;1.50;99.90
6244;DHT22;3155;49.940;8.450;2023-02-05T01:58:42;1.50;99.90
6244;DHT22;3155;49.940;8.450;2023-02-05T02:01:14;1.60;99.90
6244;DHT22;3155;49.940;8.450;2023-02-05T02:03:44;1.60;99.90
6244;DHT22;3155;49.940;8.450;2023-02-05T02:06:11;1.60;99.90
6244;DHT22;3155;49.940;8.450;2023-02-05T02:08:38;1.60;99.90
6244;DHT22;3155;49.940;8.450;2023-02-05T02:11:06;1.60;99.90
6244;DHT22;3155;49.940;8.450;2023-02-05T02:13:35;1.60;99.90
6244;DHT22;3155;49.940;8.450;2023-02-05T02:16:04;1.70;99.90
6244;DHT22;3155;49.940;8.450;2023-02-05T02:18:32;1.70;99.90
6244;DHT22;3155;49.940;8.450;2023-02-05T02:24:27;1.80;99.90
6244;DHT22;3155;49.940;8.450;2023-02-05T02:30:13;1.90;99.90
6244;DHT22;3155;49.940;8.450;2023-02-05T02:32:45;1.90;99.90
6244;DHT22;3155;49.940;8.450;2023-02-05T02:35:41;2.00;99.90
6244;DHT22;3155;49.940;8.450;2023-02-05T02:38:39;2.00;99.90
6244;DHT22;3155;49.940;8.450;2023-02-05T02:44:03;2.10;99.90
6244;DHT22;3155;49.940;8.450;2023-02-05T02:46:41;2.10;99.90
6244;DHT22;3155;49.940;8.450;2023-02-05T02:49:25;2.10;99.90
6244;DHT22;3155;49.940;8.450;2023-02-05T02:51:55;2.00;99.90
6244;DHT22;3155;49.940;8.450;2023-02-05T02:54:24;2.00;99.90
6244;DHT22;3155;49.940;8.450;2023-02-05T02:56:53;1.90;99.90
6244;DHT22;3155;49.940;8.450;2023-02-05T02:59:23;1.90;99.90
6244;DHT22;3155;49.940;8.450;2023-02-05T03:01:57;1.70;99.90
6244;DHT22;3155;49.940;8.450;2023-02-05T03:04:34;1.70;99.90
6244;DHT22;3155;49.940;8.450;2023-02-05T03:07:18;1.70;99.90
6244;DHT22;3155;49.940;8.450;2023-02-05T03:09:55;1.60;99.90
6244;DHT22;3155;49.940;8.450;2023-02-05T03:12:22;1.60;99.90
6244;DHT22;3155;49.940;8.450;2023-02-05T03:14:49;1.60;99.90
6244;DHT22;3155;49.940;8.450;2023-02-05T03:17:21;1.60;99.90
6244;DHT22;3155;49.940;8.450;2023-02-05T03:20:09;1.60;99.90
6244;DHT22;3155;49.940;8.450;2023-02-05T03:22:36;1.70;99.90
6244;DHT22;3155;49.940;8.450;2023-02-05T03:25:06;1.70;99.90
6244;DHT22;3155;49.940;8.450;2023-02-05T03:27:33;1.70;99.90
6244;DHT22;3155;49.940;8.450;2023-02-05T03:30:01;1.70;99.90
6244;DHT22;3155;49.940;8.450;2023-02-05T03:40:45;1.90;99.90
6244;DHT22;3155;49.940;8.450;2023-02-05T03:46:18;1.90;99.90
6244;DHT22;3155;49.940;8.450;2023-02-05T03:57:29;2.00;99.90
6244;DHT22;3155;49.940;8.450;2023-02-05T03:59:58;2.00;99.90
6244;DHT22;3155;49.940;8.450;2023-02-05T04:02:25;2.10;99.90
6244;DHT22;3155;49.940;8.450;2023-02-05T04:04:52;2.20;99.90
6244;DHT22;3155;49.940;8.450;2023-02-05T04:07:19;2.30;99.90
6244;DHT22;3155;49.940;8.450;2023-02-05T04:09:46;2.40;99.90
6244;DHT22;3155;49.940;8.450;2023-02-05T04:12:12;2.40;99.90
6244;DHT22;3155;49.940;8.450;2023-02-05T04:14:39;2.40;99.90
6244;DHT22;3155;49.940;8.450;2023-02-05T04:17:06;2.40;99.90
6244;DHT22;3155;49.940;8.450;2023-02-05T04:19:33;2.40;99.90
6244;DHT22;3155;49.940;8.450;2023-02-05T04:22:00;2.40;99.90
6244;DHT22;3155;49.940;8.450;2023-02-05T04:24:30;2.40;99.90
6244;DHT22;3155;49.940;8.450;2023-02-05T04:26:56;2.30;99.90
6244;DHT22;3155;49.940;8.450;2023-02-05T04:29:26;2.30;99.90
6244;DHT22;3155;49.940;8.450;2023-02-05T04:31:53;2.30;99.90
6244;DHT22;3155;49.940;8.450;2023-02-05T04:34:19;2.30;99.90
6244;DHT22;3155;49.940;8.450;2023-02-05T04:36:47;2.30;99.90
6244;DHT22;3155;49.940;8.450;2023-02-05T04:39:14;2.30;99.90
6244;DHT22;3155;49.940;8.450;2023-02-05T04:41:41;2.30;99.90
6244;DHT22;3155;49.940;8.450;2023-02-05T04:44:07;2.30;99.90
6244;DHT22;3155;49.940;8.450;2023-02-05T04:46:34;2.30;99.90
6244;DHT22;3155;49.940;8.450;2023-02-05T04:49:01;2.40;99.90
6244;DHT22;3155;49.940;8.450;2023-02-05T04:51:28;2.30;99.90
6244;DHT22;3155;49.940;8.450;2023-02-05T04:53:55;2.40;99.90
6244;DHT22;3155;49.940;8.450;2023-02-05T04:56:22;2.30;99.90
6244;DHT22;3155;49.940;8.450;2023-02-05T04:58:49;2.30;99.90
6244;DHT22;3155;49.940;8.450;2023-02-05T05:01:18;2.20;99.90
6244;DHT22;3155;49.940;8.450;2023-02-05T05:03:46;2.20;99.90
6244;DHT22;3155;49.940;8.450;2023-02-05T05:06:13;2.20;99.90
6244;DHT22;3155;49.940;8.450;2023-02-05T05:08:40;2.20;99.90
6244;DHT22;3155;49.940;8.450;2023-02-05T05:11:24;2.10;99.90
6244;DHT22;3155;49.940;8.450;2023-02-05T05:13:51;2.10;99.90
6244;DHT22;3155;49.940;8.450;2023-02-05T05:16:21;2.10;99.90
6244;DHT22;3155;49.940;8.450;2023-02-05T05:18:50;2.10;99.90
6244;DHT22;3155;49.940;8.450;2023-02-05T05:21:17;2.10;99.90
6244;DHT22;3155;49.940;8.450;2023-02-05T05:23:44;2.10;99.90
6244;DHT22;3155;49.940;8.450;2023-02-05T05:26:11;2.10;99.90
6244;DHT22;3155;49.940;8.450;2023-02-05T05:28:38;2.10;99.90
6244;DHT22;3155;49.940;8.450;2023-02-05T05:31:14;2.10;99.90
6244;DHT22;3155;49.940;8.450;2023-02-05T05:33:46;2.10;99.90
6244;DHT22;3155;49.940;8.450;2023-02-05T05:36:13;2.10;99.90
6244;DHT22;3155;49.940;8.450;2023-02-05T05:38:41;2.10;99.90
6244;DHT22;3155;49.940;8.450;2023-02-05T05:41:21;2.10;99.90
6244;DHT22;3155;49.940;8.450;2023-02-05T05:44:07;2.10;99.90
6244;DHT22;3155;49.940;8.450;2023-02-05T05:46:35;2.10;99.90
6244;DHT22;3155;49.940;8.450;2023-02-05T05:49:02;2.00;99.90
6244;DHT22;3155;49.940;8.450;2023-02-05T05:51:30;2.00;99.90
6244;DHT22;3155;49.940;8.450;2023-02-05T05:53:58;2.00;1.00
6244;DHT22;3155;49.940;8.450;2023-02-05T05:56:24;2.00;99.90
6244;DHT22;3155;49.940;8.450;2023-02-05T05:58:51;2.00;1.00
6244;DHT22;3155;49.940;8.450;2023-02-05T06:01:19;2.00;96.70
6244;DHT22;3155;49.940;8.450;2023-02-05T06:03:48;2.00;99.90
6244;DHT22;3155;49.940;8.450;2023-02-05T06:06:15;2.00;99.90
6244;DHT22;3155;49.940;8.450;2023-02-05T06:08:41;2.00;99.90
6244;DHT22;3155;49.940;8.450;2023-02-05T06:11:08;2.10;99.90
6244;DHT22;3155;49.940;8.450;2023-02-05T06:13:35;2.10;99.90
6244;DHT22;3155;49.940;8.450;2023-02-05T06:16:02;2.10;1.00
6244;DHT22;3155;49.940;8.450;2023-02-05T06:18:29;2.20;1.00
6244;DHT22;3155;49.940;8.450;2023-02-05T06:20:56;2.10;1.00
6244;DHT22;3155;49.940;8.450;2023-02-05T06:23:24;2.10;1.00
6244;DHT22;3155;49.940;8.450;2023-02-05T06:25:50;2.10;22.10
6244;DHT22;3155;49.940;8.450;2023-02-05T06:28:18;2.10;99.90
6244;DHT22;3155;49.940;8.450;2023-02-05T06:30:45;2.10;99.90
6244;DHT22;3155;49.940;8.450;2023-02-05T06:33:12;2.10;99.90
6244;DHT22;3155;49.940;8.450;2023-02-05T06:35:40;2.00;99.90
6244;DHT22;3155;49.940;8.450;2023-02-05T06:38:07;2.00;1.00
6244;DHT22;3155;49.940;8.450;2023-02-05T06:40:34;2.10;1.00
6244;DHT22;3155;49.940;8.450;2023-02-05T06:43:01;2.10;1.00
6244;DHT22;3155;49.940;8.450;2023-02-05T06:45:28;2.10;1.00
6244;DHT22;3155;49.940;8.450;2023-02-05T06:47:55;2.10;7.40
6244;DHT22;3155;49.940;8.450;2023-02-05T06:50:26;2.00;68.50
6244;DHT22;3155;49.940;8.450;2023-02-05T06:52:52;2.00;99.90
6244;DHT22;3155;49.940;8.450;2023-02-05T06:55:19;2.10;99.90
6244;DHT22;3155;49.940;8.450;2023-02-05T06:57:46;2.10;99.90
6244;DHT22;3155;49.940;8.450;2023-02-05T07:00:15;2.10;99.90
6244;DHT22;3155;49.940;8.450;2023-02-05T07:02:42;2.10;99.90
6244;DHT22;3155;49.940;8.450;2023-02-05T07:05:09;2.10;99.90
6244;DHT22;3155;49.940;8.450;2023-02-05T07:07:36;2.10;99.90
6244;DHT22;3155;49.940;8.450;2023-02-05T07:10:03;2.00;99.90
6244;DHT22;3155;49.940;8.450;2023-02-05T07:12:30;2.10;99.90
6244;DHT22;3155;49.940;8.450;2023-02-05T07:15:00;2.10;99.90
6244;DHT22;3155;49.940;8.450;2023-02-05T07:17:26;2.20;99.90
6244;DHT22;3155;49.940;8.450;2023-02-05T07:19:53;2.20;99.90
6244;DHT22;3155;49.940;8.450;2023-02-05T07:22:20;2.20;99.90
6244;DHT22;3155;49.940;8.450;2023-02-05T07:24:47;2.20;99.90
6244;DHT22;3155;49.940;8.450;2023-02-05T07:27:13;2.20;99.90
6244;DHT22;3155;49.940;8.450;2023-02-05T07:29:40;2.20;99.90
6244;DHT22;3155;49.940;8.450;2023-02-05T07:32:07;2.20;99.90
6244;DHT22;3155;49.940;8.450;2023-02-05T07:34:34;2.20;99.90
6244;DHT22;3155;49.940;8.450;2023-02-05T07:37:01;2.20;99.90
6244;DHT22;3155;49.940;8.450;2023-02-05T07:39:28;2.20;1.00
6244;DHT22;3155;49.940;8.450;2023-02-05T07:41:54;2.20;1.00
6244;DHT22;3155;49.940;8.450;2023-02-05T07:44:22;2.30;1.00
6244;DHT22;3155;49.940;8.450;2023-02-05T07:46:49;2.30;1.00
6244;DHT22;3155;49.940;8.450;2023-02-05T07:49:15;2.40;1.00
6244;DHT22;3155;49.940;8.450;2023-02-05T07:51:46;2.40;1.00
6244;DHT22;3155;49.940;8.450;2023-02-05T07:54:13;2.40;1.00
6244;DHT22;3155;49.940;8.450;2023-02-05T07:56:41;2.40;1.00
6244;DHT22;3155;49.940;8.450;2023-02-05T07:59:08;2.50;1.00
6244;DHT22;3155;49.940;8.450;2023-02-05T08:01:35;2.50;1.00
6244;DHT22;3155;49.940;8.450;2023-02-05T08:04:02;2.50;1.00
6244;DHT22;3155;49.940;8.450;2023-02-05T08:06:31;2.50;1.00
6244;DHT22;3155;49.940;8.450;2023-02-05T08:08:59;2.50;1.00
6244;DHT22;3155;49.940;8.450;2023-02-05T08:11:26;2.60;1.00
6244;DHT22;3155;49.940;8.450;2023-02-05T08:13:53;2.60;1.00
6244;DHT22;3155;49.940;8.450;2023-02-05T08:16:20;2.70;1.00
6244;DHT22;3155;49.940;8.450;2023-02-05T08:18:49;2.60;1.00
6244;DHT22;3155;49.940;8.450;2023-02-05T08:21:19;2.60;1.00
6244;DHT22;3155;49.940;8.450;2023-02-05T08:23:47;2.60;1.00
6244;DHT22;3155;49.940;8.450;2023-02-05T08:26:15;2.60;1.00
6244;DHT22;3155;49.940;8.450;2023-02-05T08:28:42;2.60;1.00
6244;DHT22;3155;49.940;8.450;2023-02-05T08:31:14;2.70;1.00
6244;DHT22;3155;49.940;8.450;2023-02-05T08:33:41;2.70;1.00
6244;DHT22;3155;49.940;8.450;2023-02-05T08:36:13;2.80;1.00
6244;DHT22;3155;49.940;8.450;2023-02-05T08:38:39;2.90;1.00
6244;DHT22;3155;49.940;8.450;2023-02-05T08:41:08;2.90;1.00
6244;DHT22;3155;49.940;8.450;2023-02-05T08:43:39;2.90;1.00
6244;DHT22;3155;49.940;8.450;2023-02-05T08:46:07;2.80;99.90
6244;DHT22;3155;49.940;8.450;2023-02-05T08:48:34;2.80;99.90
6244;DHT22;3155;49.940;8.450;2023-02-05T08:51:01;2.70;99.90
6244;DHT22;3155;49.940;8.450;2023-02-05T08:53:30;2.70;99.90
6244;DHT22;3155;49.940;8.450;2023-02-05T08:56:01;2.70;99.90
6244;DHT22;3155;49.940;8.450;2023-02-05T08:58:28;2.70;99.90
6244;DHT22;3155;49.940;8.450;2023-02-05T09:01:12;2.70;99.90
6244;DHT22;3155;49.940;8.450;2023-02-05T09:03:40;2.80;99.90
6244;DHT22;3155;49.940;8.450;2023-02-05T09:06:10;2.90;99.90
6244;DHT22;3155;49.940;8.450;2023-02-05T09:08:37;3.00;99.90
6244;DHT22;3155;49.940;8.450;2023-02-05T09:11:05;3.00;99.90
6244;DHT22;3155;49.940;8.450;2023-02-05T09:13:33;3.00;99.90
6244;DHT22;3155;49.940;8.450;2023-02-05T09:15:59;3.00;99.90
6244;DHT22;3155;49.940;8.450;2023-02-05T09:18:30;3.00;99.90
6244;DHT22;3155;49.940;8.450;2023-02-05T09:20:57;3.00;99.90
6244;DHT22;3155;49.940;8.450;2023-02-05T09:23:24;3.00;68.90
6244;DHT22;3155;49.940;8.450;2023-02-05T09:25:59;3.00;63.70
6244;DHT22;3155;49.940;8.450;2023-02-05T09:28:26;3.00;1.00
6244;DHT22;3155;49.940;8.450;2023-02-05T09:30:53;3.00;1.00
6244;DHT22;3155;49.940;8.450;2023-02-05T09:33:20;3.00;1.00
6244;DHT22;3155;49.940;8.450;2023-02-05T09:35:46;3.00;1.00
6244;DHT22;3155;49.940;8.450;2023-02-05T09:38:14;2.90;1.00
6244;DHT22;3155;49.940;8.450;2023-02-05T09:41:00;3.00;1.00
6244;DHT22;3155;49.940;8.450;2023-02-05T09:43:49;3.00;1.00
6244;DHT22;3155;49.940;8.450;2023-02-05T09:46:44;3.00;1.00
6244;DHT22;3155;49.940;8.450;2023-02-05T09:49:39;3.10;1.00
6244;DHT22;3155;49.940;8.450;2023-02-05T09:54:46;3.20;1.00
6244;DHT22;3155;49.940;8.450;2023-02-05T09:57:24;3.30;1.00
6244;DHT22;3155;49.940;8.450;2023-02-05T09:59:55;3.40;1.00
6244;DHT22;3155;49.940;8.450;2023-02-05T10:02:46;3.40;1.00
6244;DHT22;3155;49.940;8.450;2023-02-05T10:05:18;3.40;1.00
6244;DHT22;3155;49.940;8.450;2023-02-05T10:10:42;3.40;1.00
6244;DHT22;3155;49.940;8.450;2023-02-05T10:13:30;3.30;1.00
6244;DHT22;3155;49.940;8.450;2023-02-05T10:16:21;3.20;99.90
6244;DHT22;3155;49.940;8.450;2023-02-05T10:19:18;3.30;99.90
6244;DHT22;3155;49.940;8.450;2023-02-05T10:22:05;3.40;1.00
6244;DHT22;3155;49.940;8.450;2023-02-05T10:27:21;3.40;99.90
6244;DHT22;3155;49.940;8.450;2023-02-05T10:30:29;3.40;99.90
6244;DHT22;3155;49.940;8.450;2023-02-05T10:32:57;3.40;99.90
6244;DHT22;3155;49.940;8.450;2023-02-05T10:35:37;3.40;99.90
6244;DHT22;3155;49.940;8.450;2023-02-05T10:38:20;3.40;99.90
6244;DHT22;3155;49.940;8.450;2023-02-05T10:40:56;3.40;99.90
6244;DHT22;3155;49.940;8.450;2023-02-05T10:46:14;3.50;99.90
6244;DHT22;3155;49.940;8.450;2023-02-05T10:48:57;3.60;99.90
6244;DHT22;3155;49.940;8.450;2023-02-05T10:51:42;3.50;99.90
6244;DHT22;3155;49.940;8.450;2023-02-05T10:54:24;3.60;99.90
6244;DHT22;3155;49.940;8.450;2023-02-05T10:56:52;3.50;99.90
6244;DHT22;3155;49.940;8.450;2023-02-05T10:59:21;3.50;99.90
6244;DHT22;3155;49.940;8.450;2023-02-05T11:01:54;3.50;99.90
6244;DHT22;3155;49.940;8.450;2023-02-05T11:04:47;3.40;99.90
6244;DHT22;3155;49.940;8.450;2023-02-05T11:07:53;3.50;99.90
6244;DHT22;3155;49.940;8.450;2023-02-05T11:12:54;3.60;99.90
6244;DHT22;3155;49.940;8.450;2023-02-05T11:15:26;3.60;99.90
6244;DHT22;3155;49.940;8.450;2023-02-05T11:18:06;3.70;1.00
6244;DHT22;3155;49.940;8.450;2023-02-05T11:20:39;3.80;1.00
6244;DHT22;3155;49.940;8.450;2023-02-05T11:23:19;3.70;99.90
6244;DHT22;3155;49.940;8.450;2023-02-05T11:25:53;3.80;99.90
6244;DHT22;3155;49.940;8.450;2023-02-05T11:28:25;3.70;99.90
6244;DHT22;3155;49.940;8.450;2023-02-05T11:30:52;3.70;99.90
6244;DHT22;3155;49.940;8.450;2023-02-05T11:35:57;3.70;99.90
6244;DHT22;3155;49.940;8.450;2023-02-05T11:38:34;3.80;99.90
6244;DHT22;3155;49.940;8.450;2023-02-05T11:41:10;3.80;99.90
6244;DHT22;3155;49.940;8.450;2023-02-05T11:43:49;3.80;99.90
6244;DHT22;3155;49.940;8.450;2023-02-05T11:46:20;3.70;99.90
6244;DHT22;3155;49.940;8.450;2023-02-05T11:51:38;3.70;99.90
6244;DHT22;3155;49.940;8.450;2023-02-05T11:54:25;3.70;99.90
6244;DHT22;3155;49.940;8.450;2023-02-05T11:56:59;3.70;1.00
6244;DHT22;3155;49.940;8.450;2023-02-05T11:59:31;3.80;1.00
6244;DHT22;3155;49.940;8.450;2023-02-05T12:07:35;3.80;1.00
6244;DHT22;3155;49.940;8.450;2023-02-05T12:10:17;3.70;1.00
6244;DHT22;3155;49.940;8.450;2023-02-05T12:12:55;3.70;1.00
6244;DHT22;3155;49.940;8.450;2023-02-05T12:15:35;3.80;1.00
6244;DHT22;3155;49.940;8.450;2023-02-05T12:18:22;3.80;1.00
6244;DHT22;3155;49.940;8.450;2023-02-05T12:23:55;3.90;1.00
6244;DHT22;3155;49.940;8.450;2023-02-05T12:26:28;3.80;1.00
6244;DHT22;3155;49.940;8.450;2023-02-05T12:29:07;3.80;1.00
6244;DHT22;3155;49.940;8.450;2023-02-05T12:34:39;3.80;99.90
6244;DHT22;3155;49.940;8.450;2023-02-05T12:40:51;3.90;99.90
6244;DHT22;3155;49.940;8.450;2023-02-05T12:43:39;4.00;99.90
6244;DHT22;3155;49.940;8.450;2023-02-05T12:46:23;4.10;99.90
6244;DHT22;3155;49.940;8.450;2023-02-05T12:49:21;4.20;99.90
6244;DHT22;3155;49.940;8.450;2023-02-05T12:52:13;4.30;99.90
6244;DHT22;3155;49.940;8.450;2023-02-05T12:54:51;4.40;99.90
6244;DHT22;3155;49.940;8.450;2023-02-05T12:57:55;4.50;99.90
6244;DHT22;3155;49.940;8.450;2023-02-05T13:00:28;4.30;26.50
6244;DHT22;3155;49.940;8.450;2023-02-05T13:06:32;4.20;1.00
6244;DHT22;3155;49.940;8.450;2023-02-05T13:09:07;4.40;1.00
6244;DHT22;3155;49.940;8.450;2023-02-05T13:11:47;4.60;99.90
6244;DHT22;3155;49.940;8.450;2023-02-05T13:14:25;4.70;22.10
6244;DHT22;3155;49.940;8.450;2023-02-05T13:17:17;4.60;1.00
6244;DHT22;3155;49.940;8.450;2023-02-05T13:22:22;4.40;99.90
6244;DHT22;3155;49.940;8.450;2023-02-05T13:31:01;4.50;1.00
6244;DHT22;3155;49.940;8.450;2023-02-05T13:33:34;4.60;1.00
6244;DHT22;3155;49.940;8.450;2023-02-05T13:41:38;5.10;1.30
6244;DHT22;3155;49.940;8.450;2023-02-05T13:44:42;5.10;1.00
6244;DHT22;3155;49.940;8.450;2023-02-05T13:53:22;5.00;99.90
6244;DHT22;3155;49.940;8.450;2023-02-05T13:56:31;5.00;99.90
6244;DHT22;3155;49.940;8.450;2023-02-05T14:01:58;4.90;99.90
6244;DHT22;3155;49.940;8.450;2023-02-05T14:04:39;4.80;99.90
6244;DHT22;3155;49.940;8.450;2023-02-05T14:07:21;4.70;99.90
6244;DHT22;3155;49.940;8.450;2023-02-05T14:09:56;4.70;99.90
6244;DHT22;3155;49.940;8.450;2023-02-05T14:12:34;4.80;99.90
6244;DHT22;3155;49.940;8.450;2023-02-05T14:22:56;4.50;99.90
6244;DHT22;3155;49.940;8.450;2023-02-05T14:30:51;4.50;99.90
6244;DHT22;3155;49.940;8.450;2023-02-05T14:38:52;4.50;99.90
6244;DHT22;3155;49.940;8.450;2023-02-05T14:44:28;4.50;99.90
6244;DHT22;3155;49.940;8.450;2023-02-05T14:47:16;4.50;99.90
6244;DHT22;3155;49.940;8.450;2023-02-05T14:49:46;4.50;99.90
6244;DHT22;3155;49.940;8.450;2023-02-05T14:52:34;4.50;99.90
6244;DHT22;3155;49.940;8.450;2023-02-05T14:55:18;4.50;99.90
6244;DHT22;3155;49.940;8.450;2023-02-05T14:58:23;4.60;99.90
6244;DHT22;3155;49.940;8.450;2023-02-05T15:01:28;4.70;1.00
6244;DHT22;3155;49.940;8.450;2023-02-05T15:04:02;4.70;99.90
6244;DHT22;3155;49.940;8.450;2023-02-05T15:06:35;4.70;99.90
6244;DHT22;3155;49.940;8.450;2023-02-05T15:09:17;4.60;68.70
6244;DHT22;3155;49.940;8.450;2023-02-05T15:14:55;4.50;1.00
6244;DHT22;3155;49.940;8.450;2023-02-05T15:17:46;4.40;1.00
6244;DHT22;3155;49.940;8.450;2023-02-05T15:20:25;4.40;1.00
6244;DHT22;3155;49.940;8.450;2023-02-05T15:23:04;4.40;34.80
6244;DHT22;3155;49.940;8.450;2023-02-05T15:25:41;4.40;91.40
6244;DHT22;3155;49.940;8.450;2023-02-05T15:28:34;4.30;99.90
6244;DHT22;3155;49.940;8.450;2023-02-05T15:31:07;4.30;99.90
6244;DHT22;3155;49.940;8.450;2023-02-05T15:39:28;4.20;99.90
6244;DHT22;3155;49.940;8.450;2023-02-05T15:41:58;4.20;1.00
6244;DHT22;3155;49.940;8.450;2023-02-05T15:44:30;4.20;1.00
6244;DHT22;3155;49.940;8.450;2023-02-05T15:46:59;4.20;1.00
6244;DHT22;3155;49.940;8.450;2023-02-05T15:49:44;4.20;1.00
6244;DHT22;3155;49.940;8.450;2023-02-05T15:52:36;4.20;1.00
6244;DHT22;3155;49.940;8.450;2023-02-05T15:55:11;4.20;1.00
6244;DHT22;3155;49.940;8.450;2023-02-05T15:58:05;4.20;1.00
6244;DHT22;3155;49.940;8.450;2023-02-05T16:00:36;4.20;1.00
6244;DHT22;3155;49.940;8.450;2023-02-05T16:03:23;4.10;1.00
6244;DHT22;3155;49.940;8.450;2023-02-05T16:05:51;4.10;1.00
6244;DHT22;3155;49.940;8.450;2023-02-05T16:08:48;4.00;25.70
6244;DHT22;3155;49.940;8.450;2023-02-05T16:11:32;4.00;79.00
6244;DHT22;3155;49.940;8.450;2023-02-05T16:14:09;4.00;99.90
6244;DHT22;3155;49.940;8.450;2023-02-05T16:16:39;4.00;99.90
6244;DHT22;3155;49.940;8.450;2023-02-05T16:19:16;4.00;99.90
6244;DHT22;3155;49.940;8.450;2023-02-05T16:21:49;4.00;99.90
6244;DHT22;3155;49.940;8.450;2023-02-05T16:24:40;3.90;99.90
6244;DHT22;3155;49.940;8.450;2023-02-05T16:27:15;4.00;99.90
6244;DHT22;3155;49.940;8.450;2023-02-05T16:29:54;4.00;99.90
6244;DHT22;3155;49.940;8.450;2023-02-05T16:34:54;4.10;99.90
6244;DHT22;3155;49.940;8.450;2023-02-05T16:37:29;4.10;99.90
6244;DHT22;3155;49.940;8.450;2023-02-05T16:40:04;4.10;99.90
6244;DHT22;3155;49.940;8.450;2023-02-05T16:42:43;4.10;99.90
6244;DHT22;3155;49.940;8.450;2023-02-05T16:45:21;4.20;99.90
6244;DHT22;3155;49.940;8.450;2023-02-05T16:48:12;4.20;99.90
6244;DHT22;3155;49.940;8.450;2023-02-05T16:50:44;4.10;99.90
6244;DHT22;3155;49.940;8.450;2023-02-05T16:53:13;4.10;99.90
6244;DHT22;3155;49.940;8.450;2023-02-05T16:55:42;4.10;99.90
6244;DHT22;3155;49.940;8.450;2023-02-05T16:58:20;4.00;99.90
6244;DHT22;3155;49.940;8.450;2023-02-05T17:01:32;4.00;1.00
6244;DHT22;3155;49.940;8.450;2023-02-05T17:04:03;3.90;1.00
6244;DHT22;3155;49.940;8.450;2023-02-05T17:06:35;3.90;1.00
6244;DHT22;3155;49.940;8.450;2023-02-05T17:09:04;3.90;1.00
6244;DHT22;3155;49.940;8.450;2023-02-05T17:11:39;3.90;1.00
6244;DHT22;3155;49.940;8.450;2023-02-05T17:16:40;3.80;1.00
6244;DHT22;3155;49.940;8.450;2023-02-05T17:19:26;3.80;1.00
6244;DHT22;3155;49.940;8.450;2023-02-05T17:24:47;3.80;1.00
6244;DHT22;3155;49.940;8.450;2023-02-05T17:27:28;3.80;1.00
6244;DHT22;3155;49.940;8.450;2023-02-05T17:29:56;3.70;1.00
6244;DHT22;3155;49.940;8.450;2023-02-05T17:32:25;3.70;1.00
6244;DHT22;3155;49.940;8.450;2023-02-05T17:34:52;3.70;1.00
6244;DHT22;3155;49.940;8.450;2023-02-05T17:37:21;3.70;1.00
6244;DHT22;3155;49.940;8.450;2023-02-05T17:39:51;3.80;1.00
6244;DHT22;3155;49.940;8.450;2023-02-05T17:42:24;3.80;1.00
6244;DHT22;3155;49.940;8.450;2023-02-05T17:44:51;3.70;1.00
6244;DHT22;3155;49.940;8.450;2023-02-05T17:47:22;3.70;1.00
6244;DHT22;3155;49.940;8.450;2023-02-05T17:49:49;3.70;1.00
6244;DHT22;3155;49.940;8.450;2023-02-05T17:52:17;3.70;1.00
6244;DHT22;3155;49.940;8.450;2023-02-05T17:54:44;3.60;1.00
6244;DHT22;3155;49.940;8.450;2023-02-05T17:57:19;3.70;1.00
6244;DHT22;3155;49.940;8.450;2023-02-05T17:59:49;3.70;1.00
6244;DHT22;3155;49.940;8.450;2023-02-05T18:02:19;3.60;1.00
6244;DHT22;3155;49.940;8.450;2023-02-05T18:04:46;3.60;1.00
6244;DHT22;3155;49.940;8.450;2023-02-05T18:07:29;3.60;1.00
6244;DHT22;3155;49.940;8.450;2023-02-05T18:09:57;3.50;1.00
6244;DHT22;3155;49.940;8.450;2023-02-05T18:12:27;3.70;1.00
6244;DHT22;3155;49.940;8.450;2023-02-05T18:14:54;3.70;1.00
6244;DHT22;3155;49.940;8.450;2023-02-05T18:17:21;3.70;1.00
6244;DHT22;3155;49.940;8.450;2023-02-05T18:19:53;3.70;1.00
6244;DHT22;3155;49.940;8.450;2023-02-05T18:22:20;3.70;1.00
6244;DHT22;3155;49.940;8.450;2023-02-05T18:24:50;3.60;1.00
6244;DHT22;3155;49.940;8.450;2023-02-05T18:27:16;3.60;1.00
6244;DHT22;3155;49.940;8.450;2023-02-05T18:29:47;3.60;1.00
6244;DHT22;3155;49.940;8.450;2023-02-05T18:32:16;3.60;1.00
6244;DHT22;3155;49.940;8.450;2023-02-05T18:34:43;3.60;1.00
6244;DHT22;3155;49.940;8.450;2023-02-05T18:37:09;3.60;1.00
6244;DHT22;3155;49.940;8.450;2023-02-05T18:39:42;3.60;1.00
6244;DHT22;3155;49.940;8.450;2023-02-05T18:42:09;3.60;1.00
6244;DHT22;3155;49.940;8.450;2023-02-05T18:44:38;3.60;1.00
6244;DHT22;3155;49.940;8.450;2023-02-05T18:47:13;3.60;1.00
6244;DHT22;3155;49.940;8.450;2023-02-05T18:49:40;3.60;1.00
6244;DHT22;3155;49.940;8.450;2023-02-05T18:52:07;3.60;1.00
6244;DHT22;3155;49.940;8.450;2023-02-05T18:54:35;3.60;1.00
6244;DHT22;3155;49.940;8.450;2023-02-05T18:57:02;3.60;1.00
6244;DHT22;3155;49.940;8.450;2023-02-05T18:59:29;3.50;1.00
6244;DHT22;3155;49.940;8.450;2023-02-05T19:01:56;3.50;1.00
6244;DHT22;3155;49.940;8.450;2023-02-05T19:04:23;3.50;1.00
6244;DHT22;3155;49.940;8.450;2023-02-05T19:06:52;3.60;1.00
6244;DHT22;3155;49.940;8.450;2023-02-05T19:09:21;3.60;1.00
6244;DHT22;3155;49.940;8.450;2023-02-05T19:11:53;3.60;1.00